Time;durP1;ratioP1;P1;durP2;ratioP2;P2;SDS_P1;SDS_P2;PMS_P1;PMS_P2;Temp;Humidity;BMP_temperature;BMP_pressure;BME280_temperature;BME280_humidity;BME280_pressure;Samples;Min_cycle;Max_cycle;Signal;HPM_P1;HPM_P2
2022/08/29 00:01:00;;;;;;;12.15;9.13;;;17.20;82.60;;;;;;4996012;28;20042;-76
2022/08/29 00:03:27;;;;;;;11.32;8.80;;;17.20;82.50;;;;;;4995882;28;20021;-75
2022/08/29 00:05:53;;;;;;;14.40;9.45;;;17.20;82.70;;;;;;4996347;28;20493;-74
2022/08/29 00:08:19;;;;;;;10.07;8.85;;;17.20;82.70;;;;;;4995745;28;20121;-75
2022/08/29 00:10:44;;;;;;;10.57;8.68;;;17.20;82.80;;;;;;4996262;28;20098;-75
2022/08/29 00:13:13;;;;;;;13.00;9.00;;;17.10;82.90;;;;;;4996312;28;20375;-75
2022/08/29 00:15:40;;;;;;;14.88;9.55;;;17.00;83.00;;;;;;4995943;28;20478;-74
2022/08/29 00:18:06;;;;;;;13.30;9.38;;;16.90;83.60;;;;;;4996125;28;20116;-73
2022/08/29 00:20:34;;;;;;;12.18;9.55;;;16.90;83.60;;;;;;4995870;28;20394;-75
2022/08/29 00:23:00;;;;;;;14.95;9.60;;;16.90;83.90;;;;;;4995972;28;20112;-73
2022/08/29 00:25:27;;;;;;;11.90;9.23;;;16.90;83.90;;;;;;4995970;28;20021;-74
2022/08/29 00:27:53;;;;;;;9.25;8.30;;;16.90;83.90;;;;;;4995625;28;20479;-73
2022/08/29 00:30:20;;;;;;;9.40;8.35;;;17.00;83.70;;;;;;4994981;28;20022;-76
2022/08/29 00:32:45;;;;;;;12.82;8.00;;;17.00;83.60;;;;;;4995621;28;20461;-73
2022/08/29 00:35:36;;;;;;;12.38;9.73;;;17.10;83.50;;;;;;4995871;28;20126;-73
2022/08/29 00:38:04;;;;;;;14.68;9.50;;;17.10;83.10;;;;;;4988654;28;20060;-74
2022/08/29 00:40:43;;;;;;;11.00;9.30;;;17.00;83.40;;;;;;4995534;28;20068;-73
2022/08/29 00:43:10;;;;;;;9.90;8.68;;;17.00;83.50;;;;;;4995611;28;20081;-79
2022/08/29 00:45:45;;;;;;;13.32;9.68;;;17.00;84.40;;;;;;4995842;28;20092;-80
2022/08/29 00:48:15;;;;;;;11.00;8.55;;;17.00;85.20;;;;;;4995675;28;20482;-78
2022/08/29 00:50:50;;;;;;;9.20;8.05;;;17.10;83.50;;;;;;4995912;28;20502;-83
2022/08/29 00:53:23;;;;;;;12.52;8.75;;;17.10;83.70;;;;;;4996310;28;20061;-85
2022/08/29 00:55:49;;;;;;;11.18;7.75;;;17.10;83.70;;;;;;4996782;28;20030;-86
2022/08/29 00:58:34;;;;;;;9.93;7.75;;;17.20;83.80;;;;;;4996076;28;20071;-82
2022/08/29 01:01:01;;;;;;;10.88;8.40;;;17.30;82.80;;;;;;4995295;28;20041;-81
2022/08/29 01:03:32;;;;;;;9.07;7.53;;;17.30;82.50;;;;;;4995555;28;20079;-81
2022/08/29 01:05:58;;;;;;;10.68;7.70;;;17.30;82.60;;;;;;4995426;28;20083;-82
2022/08/29 01:08:25;;;;;;;11.18;8.57;;;17.40;82.50;;;;;;4995660;28;20053;-82
2022/08/29 01:13:39;;;;;;;9.98;7.88;;;17.50;81.50;;;;;;5013297;28;20081;-81
2022/08/29 01:16:07;;;;;;;8.45;7.60;;;17.60;81.00;;;;;;4995519;28;20033;-82
2022/08/29 01:18:34;;;;;;;9.23;7.25;;;17.60;80.80;;;;;;4995288;28;20077;-81
2022/08/29 01:21:23;;;;;;;8.98;7.50;;;17.60;80.40;;;;;;4995725;28;20058;-80
2022/08/29 01:23:54;;;;;;;9.85;7.88;;;17.60;80.50;;;;;;4995705;28;20033;-81
2022/08/29 01:26:21;;;;;;;9.10;8.15;;;17.50;80.80;;;;;;4995637;28;20021;-81
2022/08/29 01:28:51;;;;;;;11.32;7.38;;;17.50;80.60;;;;;;4995245;28;20030;-82
2022/08/29 01:31:23;;;;;;;12.15;8.23;;;17.40;80.70;;;;;;4995440;28;20018;-82
2022/08/29 01:33:53;;;;;;;11.02;7.60;;;17.30;80.50;;;;;;4995563;28;20026;-82
2022/08/29 01:36:23;;;;;;;9.50;7.93;;;17.40;80.70;;;;;;4995324;28;20030;-82
2022/08/29 01:38:49;;;;;;;14.82;8.55;;;17.30;80.80;;;;;;4995604;28;20026;-82
2022/08/29 01:41:16;;;;;;;10.77;7.90;;;17.30;80.90;;;;;;4995335;28;20061;-82
2022/08/29 01:43:50;;;;;;;11.98;8.80;;;17.30;81.00;;;;;;4998640;28;20053;-83
2022/08/29 01:46:21;;;;;;;13.97;8.53;;;17.30;80.90;;;;;;4998661;28;20029;-84
2022/08/29 01:48:48;;;;;;;13.27;8.13;;;17.30;81.00;;;;;;5002094;28;20022;-83
2022/08/29 01:51:14;;;;;;;8.93;7.65;;;17.30;81.30;;;;;;5011173;28;20014;-76
2022/08/29 01:53:40;;;;;;;8.75;7.85;;;17.30;80.90;;;;;;5024255;28;20132;-78
2022/08/29 01:56:16;;;;;;;8.90;7.10;;;17.30;80.90;;;;;;5024222;28;20044;-80
2022/08/29 01:58:43;;;;;;;8.60;7.22;;;17.30;80.90;;;;;;5016176;28;20092;-82
2022/08/29 02:01:11;;;;;;;8.02;7.20;;;17.40;80.30;;;;;;4998640;28;20077;-83
2022/08/29 02:03:37;;;;;;;10.43;7.93;;;17.30;79.90;;;;;;4998561;28;20022;-81
2022/08/29 02:06:03;;;;;;;8.25;7.40;;;17.20;79.90;;;;;;4998128;28;20037;-75
2022/08/29 02:08:29;;;;;;;8.93;7.43;;;17.20;80.20;;;;;;4997788;28;20113;-74
2022/08/29 02:10:54;;;;;;;11.27;7.72;;;17.10;80.20;;;;;;4998306;28;20530;-74
2022/08/29 02:13:20;;;;;;;9.85;7.72;;;17.10;80.20;;;;;;4998244;28;20126;-74
2022/08/29 02:15:46;;;;;;;9.90;7.38;;;17.10;80.00;;;;;;4998073;28;20446;-74
2022/08/29 02:18:12;;;;;;;9.48;7.18;;;17.10;79.90;;;;;;4998171;28;20022;-75
2022/08/29 02:20:37;;;;;;;12.88;7.63;;;17.00;79.80;;;;;;4998374;28;20026;-74
2022/08/29 02:23:03;;;;;;;9.57;7.15;;;17.00;79.90;;;;;;4998183;28;20449;-74
2022/08/29 02:25:40;;;;;;;9.13;7.25;;;16.90;80.10;;;;;;4998036;28;20033;-75
2022/08/29 02:28:07;;;;;;;11.80;8.30;;;16.80;80.20;;;;;;4997899;28;20496;-74
2022/08/29 02:30:33;;;;;;;15.30;8.60;;;16.70;80.50;;;;;;4997706;28;20026;-75
2022/08/29 02:32:58;;;;;;;9.68;7.78;;;16.70;80.90;;;;;;4997654;28;20091;-75
2022/08/29 02:35:24;;;;;;;9.40;7.68;;;16.70;80.90;;;;;;4997793;28;20032;-74
2022/08/29 02:37:51;;;;;;;9.70;7.45;;;16.70;81.00;;;;;;4999274;28;20022;-74
2022/08/29 02:40:16;;;;;;;8.88;7.70;;;16.70;81.00;;;;;;5000031;28;20048;-75
2022/08/29 02:42:42;;;;;;;9.55;7.78;;;16.70;81.10;;;;;;4997827;28;20022;-75
2022/08/29 02:45:09;;;;;;;9.02;7.78;;;16.70;81.00;;;;;;4997699;28;20558;-75
2022/08/29 02:47:35;;;;;;;9.45;7.97;;;16.60;81.10;;;;;;4997383;28;20025;-75
2022/08/29 02:50:07;;;;;;;11.70;8.05;;;16.60;81.20;;;;;;4997347;28;20083;-74
2022/08/29 02:52:33;;;;;;;9.10;7.40;;;16.50;81.20;;;;;;4997387;28;20018;-74
2022/08/29 02:54:59;;;;;;;9.25;8.20;;;16.60;81.40;;;;;;4996732;28;20393;-74
2022/08/29 02:57:25;;;;;;;9.15;7.95;;;16.50;81.30;;;;;;4997484;28;20441;-74
2022/08/29 02:59:50;;;;;;;9.75;7.45;;;16.50;81.40;;;;;;4997312;28;20099;-75
2022/08/29 03:02:16;;;;;;;9.35;7.93;;;16.50;81.30;;;;;;4981021;28;20466;-74
2022/08/29 03:04:42;;;;;;;12.38;9.00;;;16.50;81.50;;;;;;4997076;28;20033;-73
2022/08/29 03:07:07;;;;;;;10.48;8.93;;;16.40;82.00;;;;;;4997368;28;20097;-74
2022/08/29 03:09:33;;;;;;;10.57;8.30;;;16.30;82.50;;;;;;5000606;28;20037;-74
2022/08/29 03:11:58;;;;;;;10.50;8.32;;;16.30;82.70;;;;;;4997758;28;20018;-74
2022/08/29 03:14:24;;;;;;;13.25;8.88;;;16.30;82.80;;;;;;5014454;28;20040;-74
2022/08/29 03:16:50;;;;;;;12.70;9.32;;;16.30;82.70;;;;;;4996937;28;20116;-73
2022/08/29 03:19:15;;;;;;;12.73;9.73;;;16.20;83.00;;;;;;4996787;28;20021;-74
2022/08/29 03:21:43;;;;;;;16.52;10.00;;;16.20;83.40;;;;;;4996942;28;20447;-74
2022/08/29 03:24:09;;;;;;;9.43;7.97;;;16.20;83.40;;;;;;4996795;28;20062;-74
2022/08/29 03:26:34;;;;;;;9.98;8.50;;;16.20;83.30;;;;;;5014272;28;20471;-73
2022/08/29 03:29:00;;;;;;;9.70;8.20;;;16.20;82.90;;;;;;4996711;28;20079;-74
2022/08/29 03:31:25;;;;;;;10.45;8.43;;;16.20;82.80;;;;;;4996625;28;20025;-74
2022/08/29 03:33:51;;;;;;;9.55;8.13;;;16.20;82.80;;;;;;4996432;28;20088;-74
2022/08/29 03:36:17;;;;;;;10.90;8.23;;;16.20;82.60;;;;;;4980597;28;20126;-75
2022/08/29 03:38:45;;;;;;;12.32;9.15;;;16.10;82.70;;;;;;4980250;28;20034;-74
2022/08/29 03:41:11;;;;;;;13.18;8.05;;;16.10;82.90;;;;;;4996490;28;20030;-74
2022/08/29 03:43:37;;;;;;;9.82;8.50;;;16.10;82.80;;;;;;4996331;28;20482;-74
2022/08/29 03:46:03;;;;;;;10.13;8.82;;;16.20;82.60;;;;;;4996431;28;20029;-74
2022/08/29 03:48:28;;;;;;;9.45;8.45;;;16.20;82.60;;;;;;4996084;28;20032;-73
2022/08/29 03:50:54;;;;;;;9.63;8.05;;;16.20;83.40;;;;;;5014013;28;20026;-74
2022/08/29 03:53:21;;;;;;;10.80;7.97;;;16.20;82.60;;;;;;4996250;28;20360;-74
2022/08/29 03:55:46;;;;;;;11.88;9.25;;;16.20;82.50;;;;;;4996247;28;20601;-74
2022/08/29 03:58:12;;;;;;;13.90;8.95;;;16.20;82.20;;;;;;4996229;28;20117;-73
2022/08/29 04:00:37;;;;;;;11.27;8.75;;;16.20;82.20;;;;;;4996183;28;20073;-74
2022/08/29 04:03:03;;;;;;;11.68;8.70;;;16.20;82.50;;;;;;4995708;28;20029;-74
2022/08/29 04:05:28;;;;;;;9.65;8.65;;;16.10;82.70;;;;;;4996122;28;20084;-74
2022/08/29 04:07:58;;;;;;;9.45;8.27;;;16.10;82.80;;;;;;4996093;28;20026;-74
2022/08/29 04:10:30;;;;;;;9.80;8.80;;;16.10;82.80;;;;;;4996591;28;20466;-74
2022/08/29 04:12:56;;;;;;;11.25;8.30;;;16.00;82.80;;;;;;5000675;28;20361;-73
2022/08/29 04:15:25;;;;;;;11.48;8.23;;;16.00;83.00;;;;;;4997989;28;20036;-74
2022/08/29 04:17:53;;;;;;;10.43;7.93;;;16.00;83.20;;;;;;4997875;28;20109;-74
2022/08/29 04:20:19;;;;;;;9.48;7.78;;;16.00;83.30;;;;;;4995851;28;20026;-74
2022/08/29 04:22:44;;;;;;;10.85;8.07;;;16.10;83.10;;;;;;4995950;28;20029;-74
2022/08/29 04:25:12;;;;;;;9.77;8.43;;;16.10;83.50;;;;;;4996014;28;20038;-74
2022/08/29 04:27:38;;;;;;;9.65;7.32;;;16.10;82.40;;;;;;4995664;28;20021;-74
2022/08/29 04:30:11;;;;;;;10.75;7.40;;;16.10;82.20;;;;;;4995494;28;20041;-74
2022/08/29 04:32:37;;;;;;;8.95;7.95;;;16.10;82.20;;;;;;4995634;28;20482;-74
2022/08/29 04:35:04;;;;;;;8.60;7.70;;;16.20;82.20;;;;;;4995879;28;20128;-74
2022/08/29 04:37:30;;;;;;;8.20;7.35;;;16.10;82.10;;;;;;4995405;28;20033;-74
2022/08/29 04:39:55;;;;;;;8.40;7.50;;;16.10;81.80;;;;;;4995527;28;20026;-74
2022/08/29 04:42:21;;;;;;;9.80;7.88;;;16.10;81.70;;;;;;4995949;28;20033;-74
2022/08/29 04:44:47;;;;;;;14.40;8.35;;;16.10;81.60;;;;;;4995464;28;20030;-73
2022/08/29 04:47:13;;;;;;;11.25;8.50;;;16.10;81.40;;;;;;4995731;28;20058;-73
2022/08/29 04:49:39;;;;;;;11.02;8.27;;;16.10;81.20;;;;;;4995893;28;20449;-73
2022/08/29 04:52:05;;;;;;;9.05;7.97;;;16.00;81.00;;;;;;4995319;28;20018;-74
2022/08/29 04:54:30;;;;;;;11.32;8.25;;;15.90;81.30;;;;;;4995639;28;20038;-74
2022/08/29 04:57:02;;;;;;;10.00;8.70;;;15.90;81.40;;;;;;4995527;28;20049;-74
2022/08/29 04:59:28;;;;;;;8.88;7.78;;;15.90;81.40;;;;;;4995244;28;20049;-73
2022/08/29 05:01:54;;;;;;;10.98;8.63;;;15.90;81.60;;;;;;4995688;28;20061;-73
2022/08/29 05:04:19;;;;;;;9.70;7.47;;;15.90;81.70;;;;;;4995328;28;20057;-74
2022/08/29 05:06:45;;;;;;;13.23;9.77;;;15.90;81.90;;;;;;4995508;28;20057;-74
2022/08/29 05:09:11;;;;;;;14.02;9.55;;;15.80;82.50;;;;;;4995534;28;20030;-73
2022/08/29 05:11:36;;;;;;;11.60;9.35;;;15.90;82.60;;;;;;4995224;28;20026;-74
2022/08/29 05:14:02;;;;;;;15.23;10.45;;;15.80;82.60;;;;;;4994956;28;20038;-74
2022/08/29 05:16:29;;;;;;;14.63;10.35;;;15.80;82.80;;;;;;4995033;28;20029;-75
2022/08/29 05:18:55;;;;;;;13.50;10.63;;;15.80;83.70;;;;;;5016688;28;20139;-75
2022/08/29 05:21:36;;;;;;;14.82;10.95;;;15.70;84.20;;;;;;5016555;28;20026;-75
2022/08/29 05:24:05;;;;;;;12.70;9.57;;;15.80;84.30;;;;;;5016564;28;20029;-75
2022/08/29 05:26:35;;;;;;;13.10;10.73;;;15.90;84.20;;;;;;5016428;28;20026;-75
2022/08/29 05:29:02;;;;;;;14.15;10.00;;;16.00;84.00;;;;;;5016322;28;20060;-74
2022/08/29 05:31:27;;;;;;;20.25;11.10;;;16.10;83.50;;;;;;5017477;28;20026;-74
2022/08/29 05:33:53;;;;;;;13.35;9.68;;;16.20;84.50;;;;;;5016468;28;20034;-73
2022/08/29 05:36:19;;;;;;;16.98;9.65;;;16.30;83.30;;;;;;5016836;28;20111;-74
2022/08/29 05:38:45;;;;;;;14.38;9.20;;;16.60;83.00;;;;;;5016295;28;20426;-74
2022/08/29 05:41:10;;;;;;;14.13;9.07;;;16.90;82.00;;;;;;5016302;28;20030;-74
2022/08/29 05:43:36;;;;;;;14.05;8.85;;;17.10;80.50;;;;;;5016190;28;20517;-72
2022/08/29 05:46:06;;;;;;;14.52;8.48;;;17.40;79.10;;;;;;5015976;28;20022;-72
2022/08/29 05:48:32;;;;;;;11.18;7.85;;;17.60;78.00;;;;;;5016346;28;20069;-72
2022/08/29 05:50:59;;;;;;;11.75;7.90;;;17.80;77.00;;;;;;4998357;28;20025;-72
2022/08/29 05:53:26;;;;;;;13.88;8.27;;;17.90;76.30;;;;;;5015901;28;20129;-72
2022/08/29 05:55:52;;;;;;;10.20;7.43;;;18.00;75.60;;;;;;5015866;28;20496;-72
2022/08/29 05:58:18;;;;;;;11.27;8.43;;;18.00;75.50;;;;;;4998199;28;20482;-72
2022/08/29 06:00:45;;;;;;;10.45;7.68;;;18.00;75.60;;;;;;4997837;28;20538;-72
2022/08/29 06:03:11;;;;;;;12.30;7.80;;;17.90;75.70;;;;;;5015953;28;20026;-72
2022/08/29 06:05:38;;;;;;;14.43;8.68;;;18.00;75.60;;;;;;5015782;28;20022;-72
2022/08/29 06:08:04;;;;;;;11.15;7.88;;;18.10;75.70;;;;;;5015713;28;20057;-72
2022/08/29 06:10:31;;;;;;;11.75;7.95;;;18.10;76.00;;;;;;4998048;28;20064;-72
2022/08/29 06:12:56;;;;;;;10.55;8.05;;;18.00;76.20;;;;;;4997979;28;20441;-73
2022/08/29 06:15:22;;;;;;;10.52;7.88;;;18.10;77.20;;;;;;5015490;28;20034;-71
2022/08/29 06:17:48;;;;;;;13.27;8.52;;;18.10;76.30;;;;;;5015361;28;20034;-72
2022/08/29 06:20:14;;;;;;;16.52;8.73;;;18.20;76.10;;;;;;5015445;28;20104;-72
2022/08/29 06:22:40;;;;;;;14.57;8.38;;;18.30;76.00;;;;;;5015109;28;20455;-73
2022/08/29 06:25:07;;;;;;;17.45;8.23;;;18.50;75.30;;;;;;5015164;28;20044;-72
2022/08/29 06:27:33;;;;;;;17.42;8.50;;;18.70;74.90;;;;;;5015157;28;20052;-72
2022/08/29 06:29:58;;;;;;;18.70;8.45;;;18.90;74.50;;;;;;5015068;28;20030;-75
2022/08/29 06:32:24;;;;;;;13.68;7.72;;;19.10;73.90;;;;;;5015199;28;20463;-72
2022/08/29 06:34:49;;;;;;;19.08;8.57;;;19.20;73.50;;;;;;5015125;28;20080;-72
2022/08/29 06:37:15;;;;;;;11.73;6.57;;;19.40;73.00;;;;;;5015098;28;20062;-73
2022/08/29 06:39:41;;;;;;;28.70;8.90;;;19.60;72.50;;;;;;5015023;28;20026;-72
2022/08/29 06:42:07;;;;;;;19.33;8.57;;;19.80;71.70;;;;;;5014765;28;20062;-72
2022/08/29 06:44:33;;;;;;;13.70;7.40;;;19.90;70.90;;;;;;5014894;28;20018;-72
2022/08/29 06:46:59;;;;;;;16.95;7.70;;;20.10;71.00;;;;;;5014740;28;20471;-72
2022/08/29 06:49:26;;;;;;;11.60;7.68;;;20.20;70.60;;;;;;4996909;28;20041;-72
2022/08/29 06:51:52;;;;;;;34.15;8.98;;;20.30;70.10;;;;;;5014696;28;20026;-75
2022/08/29 06:54:21;;;;;;;51.83;10.52;;;20.40;69.90;;;;;;5014673;28;20022;-75
2022/08/29 06:56:48;;;;;;;22.08;8.48;;;20.40;69.90;;;;;;5017700;28;20521;-74
2022/08/29 06:59:14;;;;;;;15.23;7.68;;;20.40;69.70;;;;;;5014479;28;20082;-75
2022/08/29 07:01:41;;;;;;;23.55;9.25;;;20.40;69.80;;;;;;5014936;28;20026;-75
2022/08/29 07:04:07;;;;;;;19.30;9.68;;;20.50;70.10;;;;;;5014569;28;20041;-75
2022/08/29 07:06:32;;;;;;;18.55;9.30;;;20.30;70.90;;;;;;5014499;28;20026;-75
2022/08/29 07:08:58;;;;;;;13.70;9.05;;;20.40;70.60;;;;;;5014359;28;20503;-74
2022/08/29 07:11:28;;;;;;;11.27;8.48;;;20.30;71.90;;;;;;5014148;28;20022;-77
2022/08/29 07:13:56;;;;;;;9.80;7.28;;;20.40;71.50;;;;;;5013992;28;20174;-74
2022/08/29 07:16:21;;;;;;;10.25;8.45;;;20.40;71.10;;;;;;5014349;28;20030;-72
2022/08/29 07:18:47;;;;;;;8.75;7.55;;;20.60;71.20;;;;;;4996415;28;20422;-73
2022/08/29 07:21:16;;;;;;;9.75;8.40;;;20.60;70.90;;;;;;5014121;28;20386;-74
2022/08/29 07:23:42;;;;;;;15.73;8.88;;;20.70;71.00;;;;;;5014067;28;20026;-74
2022/08/29 07:26:10;;;;;;;10.35;9.27;;;20.80;70.90;;;;;;5014194;28;20105;-76
2022/08/29 07:28:36;;;;;;;13.80;9.63;;;20.80;71.60;;;;;;5014198;28;20022;-74
2022/08/29 07:31:03;;;;;;;12.93;9.35;;;20.70;71.80;;;;;;5013952;28;20113;-76
2022/08/29 07:33:29;;;;;;;13.32;9.07;;;20.60;72.70;;;;;;5013757;28;20017;-74
2022/08/29 07:35:54;;;;;;;12.55;8.55;;;20.80;72.10;;;;;;5013805;28;20030;-75
2022/08/29 07:38:20;;;;;;;9.88;7.88;;;20.90;71.80;;;;;;5013819;28;20466;-75
2022/08/29 07:40:46;;;;;;;16.05;9.07;;;21.00;71.50;;;;;;5013245;28;20029;-75
2022/08/29 07:43:11;;;;;;;12.98;8.55;;;21.10;71.20;;;;;;5013641;28;20033;-75
2022/08/29 07:45:38;;;;;;;12.25;9.18;;;21.10;71.20;;;;;;5013811;28;20132;-76
2022/08/29 07:48:04;;;;;;;12.73;9.00;;;21.20;71.30;;;;;;5013436;28;20494;-74
2022/08/29 07:50:30;;;;;;;10.95;8.30;;;21.30;71.50;;;;;;5013558;28;20431;-74
2022/08/29 07:52:56;;;;;;;9.63;7.72;;;21.30;71.40;;;;;;5013489;28;20029;-73
2022/08/29 07:55:22;;;;;;;11.60;9.48;;;21.40;70.30;;;;;;4995663;28;20048;-78
2022/08/29 07:57:52;;;;;;;10.50;8.75;;;21.40;69.70;;;;;;5013661;28;20022;-75
2022/08/29 08:00:19;;;;;;;11.27;8.88;;;21.40;69.60;;;;;;5013404;28;20045;-75
2022/08/29 08:02:46;;;;;;;10.90;9.02;;;21.30;70.20;;;;;;5013583;28;20475;-75
2022/08/29 08:05:12;;;;;;;12.05;8.38;;;21.30;70.20;;;;;;5013352;28;20041;-75
2022/08/29 08:07:37;;;;;;;9.73;8.30;;;21.40;70.20;;;;;;5013418;28;20026;-76
2022/08/29 08:10:03;;;;;;;9.77;8.15;;;21.50;70.10;;;;;;5013116;28;20482;-76
2022/08/29 08:12:29;;;;;;;10.68;8.57;;;21.60;70.60;;;;;;5015442;28;20075;-75
2022/08/29 08:14:55;;;;;;;10.73;7.97;;;21.80;68.90;;;;;;5013472;28;20069;-73
2022/08/29 08:17:22;;;;;;;9.88;7.30;;;21.90;68.00;;;;;;5029708;28;20102;-74
2022/08/29 08:19:47;;;;;;;9.85;7.72;;;22.00;67.80;;;;;;5010032;28;20026;-74
2022/08/29 08:22:13;;;;;;;9.63;7.55;;;22.20;67.40;;;;;;5023288;28;20049;-74
2022/08/29 08:24:39;;;;;;;12.23;7.50;;;22.30;66.90;;;;;;5018486;28;20036;-74
2022/08/29 08:27:04;;;;;;;10.15;8.00;;;22.40;66.90;;;;;;5018430;28;20022;-74
2022/08/29 08:29:30;;;;;;;8.73;7.00;;;22.50;66.70;;;;;;5013190;28;20033;-74
2022/08/29 08:31:58;;;;;;;12.50;6.78;;;22.70;66.70;;;;;;5012867;28;20029;-74
2022/08/29 08:34:25;;;;;;;9.57;6.97;;;22.80;66.10;;;;;;5012921;28;20030;-74
2022/08/29 08:36:50;;;;;;;15.75;9.32;;;22.90;65.90;;;;;;4995022;28;20439;-73
2022/08/29 08:39:16;;;;;;;15.30;8.45;;;23.00;65.80;;;;;;5014369;28;20032;-73
2022/08/29 08:41:58;;;;;;;13.70;9.63;;;23.00;64.90;;;;;;5012881;28;20041;-74
2022/08/29 08:44:23;;;;;;;9.95;8.32;;;23.00;65.30;;;;;;5012759;28;20041;-73
2022/08/29 08:46:58;;;;;;;13.75;9.30;;;23.10;64.90;;;;;;5012768;28;20367;-74
2022/08/29 08:49:29;;;;;;;12.52;7.57;;;22.90;65.70;;;;;;5012656;28;20034;-73
2022/08/29 08:52:02;;;;;;;8.32;7.10;;;22.90;66.90;;;;;;5013557;28;20071;-74
2022/08/29 08:54:33;;;;;;;12.20;7.60;;;23.10;66.20;;;;;;5016585;28;20030;-74
2022/08/29 08:57:08;;;;;;;9.35;6.78;;;23.30;65.60;;;;;;5017028;28;20022;-75
2022/08/29 08:59:40;;;;;;;9.05;7.07;;;23.50;64.10;;;;;;5016349;28;20046;-74
2022/08/29 09:02:11;;;;;;;8.13;6.93;;;23.70;63.40;;;;;;5015641;28;20034;-74
2022/08/29 09:04:52;;;;;;;11.30;6.95;;;23.90;62.70;;;;;;5015581;28;20097;-74
2022/08/29 09:08:00;;;;;;;8.55;6.70;;;24.00;62.30;;;;;;5015270;28;20475;-74
2022/08/29 09:10:42;;;;;;;8.48;7.10;;;24.10;61.50;;;;;;5014908;28;20077;-75
2022/08/29 09:13:26;;;;;;;11.63;7.22;;;24.20;61.50;;;;;;5015223;28;20386;-74
2022/08/29 09:15:53;;;;;;;11.15;8.10;;;24.30;60.90;;;;;;5015225;28;20041;-74
2022/08/29 09:18:39;;;;;;;9.80;7.40;;;24.30;60.60;;;;;;5015065;28;20022;-76
2022/08/29 09:21:11;;;;;;;8.88;6.70;;;24.30;60.40;;;;;;5014818;28;20026;-73
2022/08/29 09:23:49;;;;;;;10.73;8.23;;;24.50;59.90;;;;;;5015109;28;20018;-73
2022/08/29 09:26:17;;;;;;;8.50;7.60;;;24.80;58.80;;;;;;5015135;28;20026;-74
2022/08/29 09:28:42;;;;;;;7.82;6.07;;;25.00;58.40;;;;;;5015751;28;20103;-73
2022/08/29 09:31:31;;;;;;;11.82;7.15;;;25.20;56.90;;;;;;5015163;28;20022;-75
2022/08/29 09:34:04;;;;;;;8.45;5.95;;;25.30;56.20;;;;;;5014930;28;20032;-75
2022/08/29 09:36:45;;;;;;;18.70;8.00;;;25.40;55.80;;;;;;5015459;28;20022;-75
2022/08/29 09:39:23;;;;;;;7.88;6.32;;;25.50;55.50;;;;;;5015445;28;20524;-75
2022/08/29 09:42:13;;;;;;;8.73;6.68;;;25.50;55.60;;;;;;5016745;28;20091;-75
2022/08/29 09:44:49;;;;;;;12.82;7.18;;;25.80;55.10;;;;;;5000202;28;20026;-76
2022/08/29 09:47:31;;;;;;;9.05;6.60;;;26.00;54.50;;;;;;5019693;28;20104;-75
2022/08/29 09:50:23;;;;;;;7.13;6.18;;;26.30;53.20;;;;;;5031378;28;20038;-75
2022/08/29 09:53:00;;;;;;;8.65;5.75;;;26.50;51.80;;;;;;5035473;28;20069;-75
2022/08/29 09:55:25;;;;;;;10.18;6.40;;;26.60;51.50;;;;;;5035857;28;20084;-76
2022/08/29 09:58:13;;;;;;;7.88;6.68;;;26.30;51.50;;;;;;5037039;28;20026;-75
2022/08/29 10:00:42;;;;;;;13.63;6.63;;;26.30;51.60;;;;;;4998949;28;1056333;-75
2022/08/29 10:03:20;;;;;;;9.85;6.75;;;26.50;51.30;;;;;;5039185;28;20030;-76
2022/08/29 10:05:46;;;;;;;8.65;6.07;;;26.70;50.20;;;;;;5038783;28;20034;-74
2022/08/29 10:08:33;;;;;;;8.98;5.85;;;26.90;49.50;;;;;;5025010;28;20030;-76
2022/08/29 10:11:02;;;;;;;6.38;5.15;;;27.10;49.90;;;;;;5028185;28;20030;-75
2022/08/29 10:13:46;;;;;;;8.75;5.95;;;27.30;49.40;;;;;;5031387;28;20022;-75
2022/08/29 10:16:26;;;;;;;9.35;5.75;;;27.40;47.70;;;;;;5016822;28;20052;-75
2022/08/29 10:18:57;;;;;;;10.13;6.80;;;27.50;47.20;;;;;;5017044;28;20092;-75
2022/08/29 10:21:40;;;;;;;8.02;5.85;;;27.60;46.80;;;;;;5017000;28;20026;-75
2022/08/29 10:24:24;;;;;;;7.75;5.90;;;27.60;47.40;;;;;;5016558;28;20484;-76
2022/08/29 10:26:54;;;;;;;7.57;6.13;;;27.70;46.80;;;;;;5016253;28;20030;-75
2022/08/29 10:29:46;;;;;;;8.95;5.63;;;27.80;45.30;;;;;;5015466;28;20105;-75
2022/08/29 10:32:39;;;;;;;6.95;5.85;;;27.90;45.60;;;;;;5015793;28;20037;-75
2022/08/29 10:35:19;;;;;;;7.15;5.07;;;28.10;45.40;;;;;;5015276;28;20030;-75
2022/08/29 10:38:11;;;;;;;7.03;4.65;;;28.20;44.50;;;;;;5015446;28;20414;-75
2022/08/29 10:40:48;;;;;;;5.97;4.72;;;28.50;42.40;;;;;;5015148;28;20022;-74
2022/08/29 10:43:25;;;;;;;5.55;3.90;;;28.50;41.40;;;;;;5015027;28;20022;-76
2022/08/29 10:46:03;;;;;;;9.13;4.32;;;28.50;41.70;;;;;;5015380;28;20017;-75
2022/08/29 10:48:50;;;;;;;4.35;3.53;;;28.50;39.90;;;;;;5014871;28;20026;-73
2022/08/29 10:51:20;;;;;;;5.25;4.18;;;28.30;40.30;;;;;;5020825;28;20022;-72
2022/08/29 10:53:57;;;;;;;5.28;3.88;;;28.20;41.10;;;;;;5023308;28;20096;-73
2022/08/29 10:56:41;;;;;;;6.68;4.32;;;28.10;40.90;;;;;;5014888;28;20494;-73
2022/08/29 10:59:49;;;;;;;7.00;4.03;;;28.20;40.00;;;;;;5014357;28;20022;-73
2022/08/29 11:02:34;;;;;;;5.93;4.63;;;28.30;39.70;;;;;;4998201;28;20044;-77
2022/08/29 11:05:10;;;;;;;5.45;4.20;;;28.10;39.30;;;;;;5014734;28;20025;-72
2022/08/29 11:07:47;;;;;;;4.43;4.03;;;28.10;40.20;;;;;;5014362;28;20026;-72
2022/08/29 11:10:19;;;;;;;7.03;4.07;;;28.30;40.50;;;;;;4997005;28;20069;-71
2022/08/29 11:13:09;;;;;;;4.03;3.63;;;28.60;39.80;;;;;;5014175;28;20526;-73
2022/08/29 11:16:04;;;;;;;6.22;4.28;;;28.90;39.30;;;;;;5013570;28;20042;-72
2022/08/29 11:18:35;;;;;;;7.93;4.15;;;29.20;39.70;;;;;;5013051;28;20037;-72
2022/08/29 11:21:11;;;;;;;7.00;4.05;;;29.40;37.70;;;;;;5014379;28;20525;-74
2022/08/29 11:23:38;;;;;;;4.50;3.78;;;29.40;37.60;;;;;;5014051;28;20022;-74
2022/08/29 11:26:17;;;;;;;4.38;3.55;;;29.70;37.70;;;;;;5013717;28;20058;-73
2022/08/29 11:29:16;;;;;;;5.53;3.78;;;29.90;37.10;;;;;;5013970;28;20022;-74
2022/08/29 11:32:05;;;;;;;6.82;3.67;;;30.20;36.00;;;;;;5014078;28;20025;-74
2022/08/29 11:34:43;;;;;;;4.10;3.28;;;30.30;35.20;;;;;;5014127;28;20048;-75
2022/08/29 11:37:27;;;;;;;4.63;3.55;;;30.40;35.30;;;;;;5013828;28;20478;-75
2022/08/29 11:40:02;;;;;;;4.45;3.10;;;30.60;33.90;;;;;;5013899;28;20029;-74
2022/08/29 11:42:32;;;;;;;6.78;3.33;;;30.70;34.20;;;;;;5013784;28;20043;-75
2022/08/29 11:44:59;;;;;;;6.75;3.85;;;30.50;33.70;;;;;;5013685;28;20045;-75
2022/08/29 11:47:46;;;;;;;3.63;3.33;;;30.40;34.30;;;;;;5013768;28;20104;-74
2022/08/29 11:50:14;;;;;;;5.55;3.83;;;30.50;34.20;;;;;;5013494;28;20104;-74
2022/08/29 11:53:02;;;;;;;6.18;3.13;;;30.50;34.30;;;;;;5013775;28;20052;-75
2022/08/29 11:55:32;;;;;;;5.43;3.35;;;30.60;33.90;;;;;;5013754;28;20038;-74
2022/08/29 11:58:00;;;;;;;3.95;2.88;;;30.90;33.50;;;;;;5013440;28;20014;-75
2022/08/29 12:00:37;;;;;;;4.82;3.40;;;31.20;33.20;;;;;;5013623;28;20045;-75
2022/08/29 12:03:24;;;;;;;4.22;3.58;;;31.30;32.80;;;;;;5013387;28;20021;-75
2022/08/29 12:05:56;;;;;;;4.20;3.40;;;31.40;32.70;;;;;;5013366;28;20025;-75
2022/08/29 12:09:01;;;;;;;3.95;3.30;;;31.30;32.50;;;;;;5013319;28;20533;-75
2022/08/29 12:12:04;;;;;;;4.45;3.40;;;31.10;32.10;;;;;;5013460;28;20471;-75
2022/08/29 12:14:41;;;;;;;4.63;3.15;;;31.10;33.00;;;;;;4952801;29;20035;-74
2022/08/29 12:17:32;;;;;;;5.53;3.58;;;31.10;32.30;;;;;;4952847;29;20366;-74
2022/08/29 12:19:58;;;;;;;4.78;3.38;;;31.30;32.60;;;;;;5002948;28;20117;-74
2022/08/29 12:23:02;;;;;;;5.30;3.33;;;31.40;31.80;;;;;;5013551;28;20112;-74
2022/08/29 12:25:48;;;;;;;3.50;3.20;;;31.60;31.70;;;;;;5013060;28;20477;-75
2022/08/29 12:28:31;;;;;;;5.10;3.20;;;31.90;30.90;;;;;;5013172;28;20026;-74
2022/08/29 12:30:56;;;;;;;3.30;3.00;;;32.00;30.90;;;;;;5013231;28;20022;-75
2022/08/29 12:33:57;;;;;;;5.30;2.90;;;32.20;30.20;;;;;;5012912;28;20079;-74
2022/08/29 12:36:47;;;;;;;3.90;2.90;;;32.30;30.00;;;;;;5012691;28;20060;-73
2022/08/29 12:39:25;;;;;;;3.97;2.97;;;32.50;29.10;;;;;;5012718;28;20028;-74
2022/08/29 12:42:00;;;;;;;3.42;2.95;;;32.70;27.60;;;;;;5012740;28;20026;-79
2022/08/29 12:44:38;;;;;;;3.30;3.00;;;32.90;27.90;;;;;;5012652;28;20061;-77
2022/08/29 12:47:30;;;;;;;3.63;2.80;;;33.00;28.20;;;;;;5012677;28;20026;-75
2022/08/29 12:49:59;;;;;;;6.65;3.95;;;33.00;27.80;;;;;;5012718;28;20053;-77
2022/08/29 13:53:22;;;;;;;5.88;3.70;;;31.20;30.00;;;;;;5278344;23;21785;-74
2022/08/29 13:55:49;;;;;;;4.30;3.35;;;31.50;30.20;;;;;;5018520;28;20061;-75
2022/08/29 13:58:20;;;;;;;4.00;2.90;;;32.00;30.10;;;;;;5015273;28;20032;-76
2022/08/29 14:00:46;;;;;;;5.05;3.40;;;32.40;28.90;;;;;;5014770;28;20018;-74
2022/08/29 14:03:15;;;;;;;6.22;3.42;;;32.60;27.10;;;;;;5014751;28;20025;-74